Molly Patricia — WDH9743 — position and weather

sailwx.info

Track history (hours):
 
Tides and Currents Weather Stations Pressure Air Temp Water Temp Dewpoint Dewpoint Depression Visibility Wind Speed Wind Dir Waves Ship Positions

Molly Patricia

Owner: MOLLY PATRICIA, Houston, TX. More information available from US FCC via Universal Licensing System and Coast Guard Vessel Documentation Center.

Last reported at 2018-Feb-20 07:08 UTC. Time now 2018-Feb-22 19:29 UTC.
Position N 32°40' W 091°08'.

Length 29 m; draft 3 m.

Type: Towing. MMSI: 367671160.

Date/timePositionNaut miles runAvg speedWind from/ knotsBaromVisibWave heightAir tempDewpointWater temp
2018-Feb-20 07:08N 32°40' W 091°08'0 3.7
2018-Feb-20 07:00N 32°40' W 091°08'2 4.0
2018-Feb-20 06:28N 32°38' W 091°09'2 3.8
2018-Feb-20 06:00N 32°36' W 091°08'2 3.6
2018-Feb-20 05:30N 32°35' W 091°07'2 3.9
2018-Feb-20 05:00N 32°33' W 091°06'2 4.1
2018-Feb-20 04:30N 32°31' W 091°06'2 4.5
2018-Feb-20 04:00N 32°29' W 091°07'2 4.1
2018-Feb-20 03:30N 32°27' W 091°05'2 4.4
2018-Feb-20 03:00N 32°26' W 091°03'2 4.5
2018-Feb-20 02:31N 32°26' W 091°00'2 4.0
2018-Feb-20 02:00N 32°24' W 090°60'2 4.4
2018-Feb-20 01:31N 32°21' W 091°00'2 4.1
2018-Feb-20 01:00N 32°21' W 090°58'2 4.4
2018-Feb-20 00:30N 32°20' W 090°55'2 3.4
2018-Feb-20 00:00N 32°19' W 090°55'2 4.7
2018-Feb-19 23:30N 32°17' W 090°57'2 3.8
2018-Feb-19 23:00N 32°16' W 090°58'2 4.3
2018-Feb-19 22:30N 32°14' W 090°59'2 4.4
2018-Feb-19 21:59N 32°11' W 090°59'2 4.0
2018-Feb-19 21:30N 32°10' W 090°60'2 4.3
2018-Feb-19 21:00N 32°08' W 091°01'2 3.6
2018-Feb-19 20:30N 32°07' W 091°03'3 4.8
2018-Feb-19 19:57N 32°08' W 091°06'2 3.5
2018-Feb-19 19:30N 32°07' W 091°06'4 1.6
2018-Feb-19 17:03N 32°03' W 091°03'0 3.8
2018-Feb-19 16:56N 32°03' W 091°04'2 4.9
2018-Feb-19 16:26N 32°01' W 091°05'1 0.0
2018-Feb-17 19:45N 31°60' W 091°05'3 8.7
2018-Feb-17 19:27N 32°02' W 091°04'3 7.1
2018-Feb-17 19:00N 32°05' W 091°05'3 6.3
2018-Feb-17 18:30N 32°08' W 091°06'4 8.3
2018-Feb-17 18:00N 32°08' W 091°01'4 8.7
2018-Feb-17 17:30N 32°12' W 090°59'4 8.4
2018-Feb-17 17:00N 32°16' W 090°58'3 6.2
2018-Feb-17 16:30N 32°18' W 090°55'0 0.2
2018-Feb-17 16:00N 32°18' W 090°55'0 0.1
2018-Feb-17 15:30N 32°18' W 090°55'0 0.0
2018-Feb-17 15:00N 32°18' W 090°55'0 0.0
2018-Feb-17 14:30N 32°18' W 090°55'0 0.2
2018-Feb-17 14:00N 32°18' W 090°55'3 5.3
2018-Feb-17 13:30N 32°21' W 090°56'4 7.7
2018-Feb-17 13:01N 32°22' W 091°00'4 7.2
2018-Feb-17 12:30N 32°25' W 091°01'4 8.3
2018-Feb-17 12:00N 32°27' W 091°05'4 7.8
2018-Feb-17 11:30N 32°31' W 091°06'4 7.7
2018-Feb-17 11:00N 32°35' W 091°07'4 7.4
2018-Feb-17 10:30N 32°38' W 091°09'  
Track history (hours):
 
Tides and Currents Weather Stations Pressure Air Temp Water Temp Dewpoint Dewpoint Depression Visibility Wind Speed Wind Dir Waves Ship Positions

Molly Patricia

Owner: MOLLY PATRICIA, Houston, TX. More information available from US FCC via Universal Licensing System and Coast Guard Vessel Documentation Center.

Last reported at 2018-Feb-20 07:08 UTC. Time now 2018-Feb-22 19:29 UTC.
Position N 32°40' W 091°08'.

Length 29 m; draft 3 m.

Type: Towing. MMSI: 367671160.

Date/timePositionNaut miles runAvg speedWind from/ knotsBaromVisibWave heightAir tempDewpointWater temp
2018-Feb-20 07:08N 32°40' W 091°08'0 3.7
2018-Feb-20 07:00N 32°40' W 091°08'2 4.0
2018-Feb-20 06:28N 32°38' W 091°09'2 3.8
2018-Feb-20 06:00N 32°36' W 091°08'2 3.6
2018-Feb-20 05:30N 32°35' W 091°07'2 3.9
2018-Feb-20 05:00N 32°33' W 091°06'2 4.1
2018-Feb-20 04:30N 32°31' W 091°06'2 4.5
2018-Feb-20 04:00N 32°29' W 091°07'2 4.1
2018-Feb-20 03:30N 32°27' W 091°05'2 4.4
2018-Feb-20 03:00N 32°26' W 091°03'2 4.5
2018-Feb-20 02:31N 32°26' W 091°00'2 4.0
2018-Feb-20 02:00N 32°24' W 090°60'2 4.4
2018-Feb-20 01:31N 32°21' W 091°00'2 4.1
2018-Feb-20 01:00N 32°21' W 090°58'2 4.4
2018-Feb-20 00:30N 32°20' W 090°55'2 3.4
2018-Feb-20 00:00N 32°19' W 090°55'2 4.7
2018-Feb-19 23:30N 32°17' W 090°57'2 3.8
2018-Feb-19 23:00N 32°16' W 090°58'2 4.3
2018-Feb-19 22:30N 32°14' W 090°59'2 4.4
2018-Feb-19 21:59N 32°11' W 090°59'2 4.0
2018-Feb-19 21:30N 32°10' W 090°60'2 4.3
2018-Feb-19 21:00N 32°08' W 091°01'2 3.6
2018-Feb-19 20:30N 32°07' W 091°03'3 4.8
2018-Feb-19 19:57N 32°08' W 091°06'2 3.5
2018-Feb-19 19:30N 32°07' W 091°06'4 1.6
2018-Feb-19 17:03N 32°03' W 091°03'0 3.8
2018-Feb-19 16:56N 32°03' W 091°04'2 4.9
2018-Feb-19 16:26N 32°01' W 091°05'1 0.0
2018-Feb-17 19:45N 31°60' W 091°05'3 8.7
2018-Feb-17 19:27N 32°02' W 091°04'3 7.1
2018-Feb-17 19:00N 32°05' W 091°05'3 6.3
2018-Feb-17 18:30N 32°08' W 091°06'4 8.3
2018-Feb-17 18:00N 32°08' W 091°01'4 8.7
2018-Feb-17 17:30N 32°12' W 090°59'4 8.4
2018-Feb-17 17:00N 32°16' W 090°58'3 6.2
2018-Feb-17 16:30N 32°18' W 090°55'0 0.2
2018-Feb-17 16:00N 32°18' W 090°55'0 0.1
2018-Feb-17 15:30N 32°18' W 090°55'0 0.0
2018-Feb-17 15:00N 32°18' W 090°55'0 0.0
2018-Feb-17 14:30N 32°18' W 090°55'0 0.2
2018-Feb-17 14:00N 32°18' W 090°55'3 5.3
2018-Feb-17 13:30N 32°21' W 090°56'4 7.7
2018-Feb-17 13:01N 32°22' W 091°00'4 7.2
2018-Feb-17 12:30N 32°25' W 091°01'4 8.3
2018-Feb-17 12:00N 32°27' W 091°05'4 7.8
2018-Feb-17 11:30N 32°31' W 091°06'4 7.7
2018-Feb-17 11:00N 32°35' W 091°07'4 7.4
2018-Feb-17 10:30N 32°38' W 091°09'  

Dump ship's entire track history